Time,TemperatureF,DewpointF,PressureIn,WindDirection,WindDirectionDegrees,WindSpeedMPH,WindSpeedGustMPH,Humidity,HourlyPrecipIn,Conditions,Clouds,dailyrainin,SoftwareType,DateUTC
2013-02-17 00:00:00,19.4,15.1,29.63,WNW,287,2.0,9.0,83,0.00,,,0.00,WeatherCatV1.02B3,2013-02-17 05:00:00,
2013-02-17 00:05:00,19.5,15.5,29.63,NW,314,3.0,9.0,84,0.00,,,0.00,WeatherCatV1.02B3,2013-02-17 05:05:00,
2013-02-17 00:10:00,19.5,14.9,29.63,NW,319,4.0,7.0,82,0.00,,,0.00,WeatherCatV1.02B3,2013-02-17 05:10:00,
2013-02-17 00:15:00,19.5,14.6,29.63,WNW,290,1.0,4.0,81,0.00,,,0.00,WeatherCatV1.02B3,2013-02-17 05:15:00,
2013-02-17 00:20:00,19.5,14.6,29.63,WNW,296,5.0,7.0,81,0.00,,,0.00,WeatherCatV1.02B3,2013-02-17 05:20:00,
2013-02-17 00:25:00,19.6,15.0,29.63,West,271,1.0,5.0,82,0.00,,,0.00,WeatherCatV1.02B3,2013-02-17 05:25:00,
2013-02-17 00:30:00,19.7,15.1,29.63,West,277,3.0,8.0,82,0.00,,,0.00,WeatherCatV1.02B3,2013-02-17 05:30:00,
2013-02-17 00:35:00,19.9,14.7,29.63,West,272,4.0,9.0,80,0.00,,,0.00,WeatherCatV1.02B3,2013-02-17 05:35:00,
2013-02-17 00:40:00,20.0,14.8,29.63,West,268,0.0,5.0,80,0.00,,,0.00,WeatherCatV1.02B3,2013-02-17 05:40:00,
2013-02-17 00:45:00,20.0,15.1,29.63,WNW,294,2.0,7.0,81,0.00,,,0.00,WeatherCatV1.02B3,2013-02-17 05:45:00,
2013-02-17 00:50:00,19.9,14.7,29.63,WSW,257,3.0,4.0,80,0.00,,,0.00,WeatherCatV1.02B3,2013-02-17 05:50:00,
2013-02-17 00:55:00,20.0,15.1,29.63,West,270,5.0,5.0,81,0.00,,,0.00,WeatherCatV1.02B3,2013-02-17 05:55:00,
2013-02-17 01:00:00,19.9,14.7,29.63,WNW,287,2.0,8.0,80,0.00,,,0.00,WeatherCatV1.02B3,2013-02-17 06:00:00,
2013-02-17 01:05:00,19.7,14.3,29.63,WSW,256,3.0,6.0,79,0.00,,,0.00,WeatherCatV1.02B3,2013-02-17 06:05:00,
2013-02-17 01:10:00,19.9,14.5,29.63,West,274,3.0,7.0,79,0.00,,,0.00,WeatherCatV1.02B3,2013-02-17 06:10:00,
2013-02-17 01:15:00,20.0,14.3,29.63,WSW,257,3.0,5.0,78,0.00,,,0.00,WeatherCatV1.02B3,2013-02-17 06:15:00,
2013-02-17 01:20:00,20.2,14.5,29.63,WNW,299,3.0,5.0,78,0.00,,,0.00,WeatherCatV1.02B3,2013-02-17 06:20:00,
2013-02-17 01:25:00,20.4,14.4,29.63,West,266,2.0,4.0,77,0.00,,,0.00,WeatherCatV1.02B3,2013-02-17 06:25:00,
2013-02-17 01:30:00,20.5,14.5,29.63,WNW,294,2.0,4.0,77,0.00,,,0.00,WeatherCatV1.02B3,2013-02-17 06:30:00,
2013-02-17 01:35:00,20.5,14.5,29.63,West,271,7.0,7.0,77,0.00,,,0.00,WeatherCatV1.02B3,2013-02-17 06:35:00,
2013-02-17 01:40:00,20.5,14.5,29.63,WNW,302,4.0,6.0,77,0.00,,,0.00,WeatherCatV1.02B3,2013-02-17 06:40:00,
2013-02-17 01:45:00,20.6,14.8,29.63,WNW,283,2.0,7.0,78,0.00,,,0.00,WeatherCatV1.02B3,2013-02-17 06:45:00,
2013-02-17 01:50:00,20.7,14.7,29.63,WNW,292,2.0,8.0,77,0.00,,,0.00,WeatherCatV1.02B3,2013-02-17 06:50:00,
2013-02-17 01:55:00,20.8,14.7,29.62,WSW,255,0.0,9.0,77,0.00,,,0.00,WeatherCatV1.02B3,2013-02-17 06:55:00,
2013-02-17 02:00:00,20.8,15.0,29.63,WNW,294,5.0,7.0,78,0.00,,,0.00,WeatherCatV1.02B3,2013-02-17 07:00:00,
2013-02-17 02:05:00,20.6,15.4,29.63,WNW,294,3.0,6.0,80,0.00,,,0.00,WeatherCatV1.02B3,2013-02-17 07:05:00,
2013-02-17 02:10:00,20.5,15.9,29.63,WNW,284,5.0,7.0,82,0.00,,,0.00,WeatherCatV1.02B3,2013-02-17 07:10:00,
2013-02-17 02:15:00,20.5,16.2,29.63,WNW,284,3.0,7.0,83,0.00,,,0.00,WeatherCatV1.02B3,2013-02-17 07:15:00,
2013-02-17 02:20:00,20.4,16.1,29.63,West,262,3.0,9.0,83,0.00,,,0.00,WeatherCatV1.02B3,2013-02-17 07:20:00,
2013-02-17 02:25:00,20.3,16.3,29.63,WNW,291,2.0,7.0,84,0.00,,,0.00,WeatherCatV1.02B3,2013-02-17 07:25:00,
2013-02-17 02:30:00,20.1,16.3,29.63,West,281,2.0,9.0,85,0.00,,,0.00,WeatherCatV1.02B3,2013-02-17 07:30:00,
2013-02-17 02:35:00,19.8,16.8,29.63,WNW,291,2.0,6.0,88,0.00,,,0.00,WeatherCatV1.02B3,2013-02-17 07:35:00,
2013-02-17 02:40:00,19.5,17.1,29.63,WNW,287,4.0,7.0,90,0.00,,,0.00,WeatherCatV1.02B3,2013-02-17 07:40:00,
2013-02-17 02:45:00,19.5,17.3,29.63,West,274,0.0,4.0,91,0.00,,,0.00,WeatherCatV1.02B3,2013-02-17 07:45:00,
2013-02-17 02:50:00,19.4,17.2,29.63,West,277,0.0,1.0,91,0.00,,,0.00,WeatherCatV1.02B3,2013-02-17 07:50:00,
2013-02-17 02:55:00,19.4,17.2,29.64,NW,326,0.0,4.0,91,0.00,,,0.00,WeatherCatV1.02B3,2013-02-17 07:55:00,
2013-02-17 03:00:00,19.4,16.7,29.63,West,268,3.0,6.0,89,0.00,,,0.00,WeatherCatV1.02B3,2013-02-17 08:00:00,
2013-02-17 03:05:00,19.5,16.5,29.63,WNW,299,2.0,6.0,88,0.00,,,0.00,WeatherCatV1.02B3,2013-02-17 08:05:00,
2013-02-17 03:10:00,19.7,16.2,29.64,NW,323,2.0,6.0,86,0.00,,,0.00,WeatherCatV1.02B3,2013-02-17 08:10:00,
2013-02-17 03:15:00,19.8,15.8,29.63,West,278,3.0,6.0,84,0.00,,,0.00,WeatherCatV1.02B3,2013-02-17 08:15:00,
2013-02-17 03:20:00,20.0,16.0,29.63,WNW,283,4.0,7.0,84,0.00,,,0.00,WeatherCatV1.02B3,2013-02-17 08:20:00,
2013-02-17 03:25:00,20.0,15.7,29.63,WNW,298,1.0,6.0,83,0.00,,,0.00,WeatherCatV1.02B3,2013-02-17 08:25:00,
2013-02-17 03:30:00,20.0,15.7,29.63,NW,314,1.0,4.0,83,0.00,,,0.00,WeatherCatV1.02B3,2013-02-17 08:30:00,
2013-02-17 03:35:00,20.1,15.2,29.63,West,277,3.0,6.0,81,0.00,,,0.00,WeatherCatV1.02B3,2013-02-17 08:35:00,
2013-02-17 03:40:00,20.1,15.5,29.63,NE,56,1.0,4.0,82,0.00,,,0.00,WeatherCatV1.02B3,2013-02-17 08:40:00,
2013-02-17 03:45:00,19.7,15.7,29.64,NE,50,4.0,6.0,84,0.00,,,0.00,WeatherCatV1.02B3,2013-02-17 08:45:00,
2013-02-17 03:50:00,18.7,15.5,29.64,ENE,74,2.0,4.0,87,0.00,,,0.00,WeatherCatV1.02B3,2013-02-17 08:50:00,
2013-02-17 03:55:00,18.2,15.3,29.63,ENE,74,1.0,5.0,88,0.00,,,0.00,WeatherCatV1.02B3,2013-02-17 08:55:00,
2013-02-17 04:00:00,18.0,15.3,29.64,North,8,0.0,1.0,89,0.00,,,0.00,WeatherCatV1.02B3,2013-02-17 09:00:00,
2013-02-17 04:05:00,18.0,15.6,29.64,ENE,63,1.0,2.0,90,0.00,,,0.00,WeatherCatV1.02B3,2013-02-17 09:05:00,
2013-02-17 04:10:00,17.9,15.5,29.64,ESE,113,0.0,0.0,90,0.00,,,0.00,WeatherCatV1.02B3,2013-02-17 09:10:00,
2013-02-17 04:15:00,18.0,15.6,29.64,ESE,114,0.0,1.0,90,0.00,,,0.00,WeatherCatV1.02B3,2013-02-17 09:15:00,
2013-02-17 04:20:00,18.0,15.6,29.64,ESE,111,0.0,0.0,90,0.00,,,0.00,WeatherCatV1.02B3,2013-02-17 09:20:00,
2013-02-17 04:25:00,18.0,15.6,29.64,ESE,102,0.0,0.0,90,0.00,,,0.00,WeatherCatV1.02B3,2013-02-17 09:25:00,
2013-02-17 04:30:00,17.9,15.5,29.64,ESE,114,0.0,1.0,90,0.00,,,0.00,WeatherCatV1.02B3,2013-02-17 09:30:00,
2013-02-17 04:35:00,17.9,15.7,29.64,ESE,116,0.0,0.0,91,0.00,,,0.00,WeatherCatV1.02B3,2013-02-17 09:35:00,
2013-02-17 04:40:00,17.9,15.7,29.64,ESE,102,0.0,1.0,91,0.00,,,0.00,WeatherCatV1.02B3,2013-02-17 09:40:00,
2013-02-17 04:45:00,17.8,15.6,29.64,ESE,103,0.0,0.0,91,0.00,,,0.00,WeatherCatV1.02B3,2013-02-17 09:45:00,
2013-02-17 04:50:00,17.8,15.6,29.65,NE,54,0.0,1.0,91,0.00,,,0.00,WeatherCatV1.02B3,2013-02-17 09:50:00,
2013-02-17 04:55:00,17.6,15.4,29.65,ENE,75,2.0,2.0,91,0.00,,,0.00,WeatherCatV1.02B3,2013-02-17 09:55:00,
2013-02-17 05:00:00,17.4,15.2,29.65,ENE,63,0.0,2.0,91,0.00,,,0.00,WeatherCatV1.02B3,2013-02-17 10:00:00,
2013-02-17 05:05:00,17.3,15.1,29.65,East,81,0.0,1.0,91,0.00,,,0.00,WeatherCatV1.02B3,2013-02-17 10:05:00,
2013-02-17 05:10:00,17.3,15.1,29.65,ESE,115,0.0,0.0,91,0.00,,,0.00,WeatherCatV1.02B3,2013-02-17 10:10:00,
2013-02-17 05:15:00,17.3,15.1,29.65,ESE,115,0.0,0.0,91,0.00,,,0.00,WeatherCatV1.02B3,2013-02-17 10:15:00,
2013-02-17 05:20:00,17.2,15.0,29.65,East,84,0.0,0.0,91,0.00,,,0.00,WeatherCatV1.02B3,2013-02-17 10:20:00,
2013-02-17 05:25:00,17.2,15.0,29.66,East,83,0.0,0.0,91,0.00,,,0.00,WeatherCatV1.02B3,2013-02-17 10:25:00,
2013-02-17 05:30:00,17.1,14.9,29.65,East,84,0.0,0.0,91,0.00,,,0.00,WeatherCatV1.02B3,2013-02-17 10:30:00,
2013-02-17 05:35:00,17.1,14.9,29.66,East,83,0.0,1.0,91,0.00,,,0.00,WeatherCatV1.02B3,2013-02-17 10:35:00,
2013-02-17 05:40:00,17.1,14.9,29.66,ESE,102,0.0,0.0,91,0.00,,,0.00,WeatherCatV1.02B3,2013-02-17 10:40:00,
2013-02-17 05:45:00,17.1,14.9,29.66,ESE,102,0.0,0.0,91,0.00,,,0.00,WeatherCatV1.02B3,2013-02-17 10:45:00,
2013-02-17 05:50:00,17.1,14.9,29.66,ESE,102,0.0,0.0,91,0.00,,,0.00,WeatherCatV1.02B3,2013-02-17 10:50:00,
2013-02-17 05:55:00,17.0,14.8,29.66,ESE,114,1.0,1.0,91,0.00,,,0.00,WeatherCatV1.02B3,2013-02-17 10:55:00,
2013-02-17 06:00:00,17.0,14.8,29.66,ESE,116,0.0,0.0,91,0.00,,,0.00,WeatherCatV1.02B3,2013-02-17 11:00:00,
2013-02-17 06:05:00,16.9,14.7,29.66,ESE,115,0.0,0.0,91,0.00,,,0.00,WeatherCatV1.02B3,2013-02-17 11:05:00,
2013-02-17 06:10:00,16.9,14.7,29.66,ESE,115,0.0,0.0,91,0.00,,,0.00,WeatherCatV1.02B3,2013-02-17 11:10:00,
2013-02-17 06:15:00,16.8,14.6,29.67,ESE,117,0.0,0.0,91,0.00,,,0.00,WeatherCatV1.02B3,2013-02-17 11:15:00,
2013-02-17 06:20:00,16.8,14.6,29.67,ESE,117,0.0,0.0,91,0.00,,,0.00,WeatherCatV1.02B3,2013-02-17 11:20:00,
2013-02-17 06:25:00,16.8,14.6,29.67,ESE,117,0.0,0.0,91,0.00,,,0.00,WeatherCatV1.02B3,2013-02-17 11:25:00,
2013-02-17 06:30:00,16.8,14.9,29.67,ESE,117,0.0,0.0,92,0.00,,,0.00,WeatherCatV1.02B3,2013-02-17 11:30:00,
2013-02-17 06:35:00,16.8,14.9,29.67,ESE,117,0.0,0.0,92,0.00,,,0.00,WeatherCatV1.02B3,2013-02-17 11:35:00,
2013-02-17 06:40:00,16.8,14.9,29.67,ESE,117,0.0,0.0,92,0.00,,,0.00,WeatherCatV1.02B3,2013-02-17 11:40:00,
2013-02-17 06:45:00,16.9,15.0,29.67,ESE,117,0.0,0.0,92,0.00,,,0.00,WeatherCatV1.02B3,2013-02-17 11:45:00,
2013-02-17 06:50:00,16.9,15.0,29.68,ESE,117,0.0,0.0,92,0.00,,,0.00,WeatherCatV1.02B3,2013-02-17 11:50:00,
2013-02-17 06:55:00,16.9,15.0,29.68,ESE,117,0.0,0.0,92,0.00,,,0.00,WeatherCatV1.02B3,2013-02-17 11:55:00,
2013-02-17 07:00:00,16.9,15.0,29.68,ESE,117,0.0,0.0,92,0.00,,,0.00,WeatherCatV1.02B3,2013-02-17 12:00:00,
2013-02-17 07:05:00,17.0,15.1,29.68,ESE,117,0.0,0.0,92,0.00,,,0.00,WeatherCatV1.02B3,2013-02-17 12:05:00,
2013-02-17 07:10:00,17.0,15.1,29.68,ESE,117,0.0,0.0,92,0.00,,,0.00,WeatherCatV1.02B3,2013-02-17 12:10:00,
2013-02-17 07:15:00,17.0,15.1,29.68,ESE,117,0.0,0.0,92,0.00,,,0.00,WeatherCatV1.02B3,2013-02-17 12:15:00,
2013-02-17 07:20:00,16.9,15.0,29.68,ESE,117,0.0,0.0,92,0.00,,,0.00,WeatherCatV1.02B3,2013-02-17 12:20:00,
2013-02-17 07:25:00,16.9,15.0,29.68,ESE,117,0.0,0.0,92,0.00,,,0.00,WeatherCatV1.02B3,2013-02-17 12:25:00,
2013-02-17 07:30:00,16.8,14.6,29.68,ESE,117,0.0,0.0,91,0.00,,,0.00,WeatherCatV1.02B3,2013-02-17 12:30:00,
2013-02-17 07:35:00,16.8,14.6,29.68,ESE,117,0.0,0.0,91,0.00,,,0.00,WeatherCatV1.02B3,2013-02-17 12:35:00,
2013-02-17 07:40:00,16.8,14.6,29.68,ESE,117,0.0,0.0,91,0.00,,,0.00,WeatherCatV1.02B3,2013-02-17 12:40:00,
2013-02-17 07:45:00,16.8,14.9,29.68,ESE,117,0.0,0.0,92,0.00,,,0.00,WeatherCatV1.02B3,2013-02-17 12:45:00,
2013-02-17 07:50:00,16.9,14.7,29.68,ESE,117,0.0,0.0,91,0.00,,,0.00,WeatherCatV1.02B3,2013-02-17 12:50:00,
2013-02-17 07:55:00,16.9,14.7,29.69,ESE,117,0.0,0.0,91,0.00,,,0.00,WeatherCatV1.02B3,2013-02-17 12:55:00,
2013-02-17 08:00:00,16.9,14.7,29.69,ESE,117,0.0,0.0,91,0.00,,,0.00,WeatherCatV1.02B3,2013-02-17 13:00:00,
2013-02-17 08:05:00,17.0,14.8,29.69,ESE,117,0.0,0.0,91,0.00,,,0.00,WeatherCatV1.02B3,2013-02-17 13:05:00,
2013-02-17 08:10:00,17.1,14.9,29.69,ESE,117,0.0,0.0,91,0.00,,,0.00,WeatherCatV1.02B3,2013-02-17 13:10:00,
2013-02-17 08:15:00,17.2,15.0,29.69,ESE,117,0.0,0.0,91,0.00,,,0.00,WeatherCatV1.02B3,2013-02-17 13:15:00,
2013-02-17 08:20:00,17.3,15.1,29.69,ESE,117,0.0,0.0,91,0.00,,,0.00,WeatherCatV1.02B3,2013-02-17 13:20:00,
2013-02-17 08:25:00,17.3,15.1,29.69,ESE,117,0.0,0.0,91,0.00,,,0.00,WeatherCatV1.02B3,2013-02-17 13:25:00,
2013-02-17 08:30:00,17.5,15.1,29.69,ESE,117,0.0,0.0,90,0.00,,,0.00,WeatherCatV1.02B3,2013-02-17 13:30:00,
2013-02-17 08:35:00,17.6,15.4,29.69,ESE,117,0.0,0.0,91,0.00,,,0.00,WeatherCatV1.02B3,2013-02-17 13:35:00,
2013-02-17 08:40:00,17.8,15.4,29.69,ESE,117,0.0,0.0,90,0.00,,,0.00,WeatherCatV1.02B3,2013-02-17 13:40:00,
2013-02-17 08:45:00,17.9,15.5,29.69,ESE,117,0.0,0.0,90,0.00,,,0.00,WeatherCatV1.02B3,2013-02-17 13:45:00,
2013-02-17 08:50:00,18.1,15.7,29.69,ESE,117,0.0,0.0,90,0.00,,,0.00,WeatherCatV1.02B3,2013-02-17 13:50:00,
2013-02-17 08:55:00,18.4,16.0,29.69,ESE,117,0.0,0.0,90,0.00,,,0.00,WeatherCatV1.02B3,2013-02-17 13:55:00,
2013-02-17 09:00:00,18.5,15.8,29.70,ESE,117,0.0,0.0,89,0.00,,,0.00,WeatherCatV1.02B3,2013-02-17 14:00:00,
2013-02-17 09:05:00,18.7,16.0,29.70,ESE,117,0.0,0.0,89,0.00,,,0.00,WeatherCatV1.02B3,2013-02-17 14:05:00,
2013-02-17 09:10:00,18.9,16.2,29.70,ESE,117,0.0,0.0,89,0.00,,,0.00,WeatherCatV1.02B3,2013-02-17 14:10:00,
2013-02-17 09:15:00,19.0,16.0,29.70,ESE,117,0.0,0.0,88,0.00,,,0.00,WeatherCatV1.02B3,2013-02-17 14:15:00,
2013-02-17 09:20:00,19.2,16.2,29.70,ESE,117,0.0,0.0,88,0.00,,,0.00,WeatherCatV1.02B3,2013-02-17 14:20:00,
2013-02-17 09:25:00,19.4,16.4,29.70,ESE,117,0.0,0.0,88,0.00,,,0.00,WeatherCatV1.02B3,2013-02-17 14:25:00,
2013-02-17 09:30:00,19.7,16.5,29.70,ESE,117,0.0,0.0,87,0.00,,,0.00,WeatherCatV1.02B3,2013-02-17 14:30:00,
2013-02-17 09:35:00,20.0,16.8,29.70,ESE,117,0.0,0.0,87,0.00,,,0.00,WeatherCatV1.02B3,2013-02-17 14:35:00,
2013-02-17 09:40:00,20.3,17.1,29.70,ESE,117,0.0,0.0,87,0.00,,,0.00,WeatherCatV1.02B3,2013-02-17 14:40:00,
2013-02-17 09:45:00,20.6,17.1,29.70,ESE,117,0.0,0.0,86,0.00,,,0.00,WeatherCatV1.02B3,2013-02-17 14:45:00,
2013-02-17 09:50:00,21.0,17.5,29.70,ESE,117,0.0,0.0,86,0.00,,,0.00,WeatherCatV1.02B3,2013-02-17 14:50:00,
2013-02-17 09:55:00,21.5,17.7,29.70,SE,131,0.0,0.0,85,0.00,,,0.00,WeatherCatV1.02B3,2013-02-17 14:55:00,
2013-02-17 10:00:00,22.2,18.4,29.70,SE,133,0.0,0.0,85,0.00,,,0.00,WeatherCatV1.02B3,2013-02-17 15:00:00,
2013-02-17 10:05:00,23.2,18.8,29.70,SSW,198,0.0,0.0,83,0.00,,,0.00,WeatherCatV1.02B3,2013-02-17 15:05:00,
2013-02-17 10:10:00,24.0,19.0,29.70,SSW,197,0.0,0.0,81,0.00,,,0.00,WeatherCatV1.02B3,2013-02-17 15:10:00,
2013-02-17 10:15:00,24.1,18.5,29.70,SSW,210,0.0,1.0,79,0.00,,,0.00,WeatherCatV1.02B3,2013-02-17 15:15:00,
2013-02-17 10:20:00,23.6,18.1,29.70,SW,236,0.0,1.0,79,0.00,,,0.00,WeatherCatV1.02B3,2013-02-17 15:20:00,
2013-02-17 10:25:00,23.3,18.1,29.70,WSW,243,0.0,0.0,80,0.00,,,0.00,WeatherCatV1.02B3,2013-02-17 15:25:00,
2013-02-17 10:30:00,23.4,17.6,29.71,West,260,0.0,2.0,78,0.00,,,0.00,WeatherCatV1.02B3,2013-02-17 15:30:00,
2013-02-17 10:35:00,23.5,17.4,29.70,WSW,246,1.0,3.0,77,0.00,,,0.00,WeatherCatV1.02B3,2013-02-17 15:35:00,
2013-02-17 10:40:00,23.6,16.9,29.71,West,277,4.0,5.0,75,0.00,,,0.00,WeatherCatV1.02B3,2013-02-17 15:40:00,
2013-02-17 10:45:00,23.6,16.2,29.70,West,260,6.0,6.0,73,0.00,,,0.00,WeatherCatV1.02B3,2013-02-17 15:45:00,
2013-02-17 10:50:00,23.6,16.2,29.71,West,262,4.0,5.0,73,0.00,,,0.00,WeatherCatV1.02B3,2013-02-17 15:50:00,
2013-02-17 10:55:00,23.4,15.4,29.71,WSW,242,4.0,7.0,71,0.00,,,0.00,WeatherCatV1.02B3,2013-02-17 15:55:00,
2013-02-17 11:00:00,23.8,16.1,29.71,WSW,256,1.0,3.0,72,0.00,,,0.00,WeatherCatV1.02B3,2013-02-17 16:00:00,
2013-02-17 11:05:00,24.3,15.6,29.71,SW,229,4.0,8.0,69,0.00,,,0.00,WeatherCatV1.02B3,2013-02-17 16:05:00,
2013-02-17 11:10:00,24.3,15.6,29.71,West,273,3.0,6.0,69,0.00,,,0.00,WeatherCatV1.02B3,2013-02-17 16:10:00,
2013-02-17 11:15:00,24.7,15.7,29.71,West,265,3.0,6.0,68,0.00,,,0.00,WeatherCatV1.02B3,2013-02-17 16:15:00,
2013-02-17 11:20:00,24.6,15.2,29.71,West,262,4.0,5.0,67,0.00,,,0.00,WeatherCatV1.02B3,2013-02-17 16:20:00,
2013-02-17 11:25:00,23.8,14.8,29.71,WSW,252,0.0,2.0,68,0.00,,,0.00,WeatherCatV1.02B3,2013-02-17 16:25:00,
2013-02-17 11:30:00,24.0,15.0,29.71,WSW,256,1.0,3.0,68,0.00,,,0.00,WeatherCatV1.02B3,2013-02-17 16:30:00,
2013-02-17 11:35:00,24.6,14.9,29.71,WSW,246,2.0,5.0,66,0.00,,,0.00,WeatherCatV1.02B3,2013-02-17 16:35:00,
2013-02-17 11:40:00,25.3,14.5,29.71,West,273,2.0,3.0,63,0.00,,,0.00,WeatherCatV1.02B3,2013-02-17 16:40:00,
2013-02-17 11:45:00,24.7,14.3,29.71,WNW,300,0.0,3.0,64,0.00,,,0.00,WeatherCatV1.02B3,2013-02-17 16:45:00,
2013-02-17 11:50:00,24.9,14.5,29.71,West,274,1.0,2.0,64,0.00,,,0.00,WeatherCatV1.02B3,2013-02-17 16:50:00,
2013-02-17 11:55:00,25.1,13.9,29.71,West,274,0.0,1.0,62,0.00,,,0.00,WeatherCatV1.02B3,2013-02-17 16:55:00,
2013-02-17 12:00:00,26.4,16.3,29.71,SW,222,0.0,0.0,65,0.00,,,0.00,WeatherCatV1.02B3,2013-02-17 17:00:00,
2013-02-17 12:05:00,27.5,15.8,29.71,SW,221,0.0,0.0,61,0.00,,,0.00,WeatherCatV1.02B3,2013-02-17 17:05:00,
2013-02-17 12:10:00,28.9,15.2,29.70,WNW,291,2.0,2.0,56,0.00,,,0.00,WeatherCatV1.02B3,2013-02-17 17:10:00,
2013-02-17 12:15:00,28.0,13.9,29.70,SE,138,0.0,0.0,55,0.00,,,0.00,WeatherCatV1.02B3,2013-02-17 17:15:00,
2013-02-17 12:20:00,28.1,14.4,29.70,West,266,1.0,3.0,56,0.00,,,0.00,WeatherCatV1.02B3,2013-02-17 17:20:00,
2013-02-17 12:25:00,28.2,14.1,29.71,NNW,340,1.0,2.0,55,0.00,,,0.00,WeatherCatV1.02B3,2013-02-17 17:25:00,
2013-02-17 12:26:00,28.2,14.1,29.71,NNW,338,1.0,2.0,55,0.00,,,0.00,WeatherCatV1.02B3,2013-02-17 17:26:00,
2013-02-17 12:31:00,27.5,15.1,29.70,West,281,1.0,3.0,59,0.00,,,0.00,WeatherCatV1.02B3,2013-02-17 17:31:00,
2013-02-17 12:36:00,27.6,15.9,29.70,WSW,255,1.0,3.0,61,0.00,,,0.00,WeatherCatV1.02B3,2013-02-17 17:36:00,
2013-02-17 12:41:00,28.0,16.7,29.70,NW,321,0.0,1.0,62,0.00,,,0.00,WeatherCatV1.02B3,2013-02-17 17:41:00,
2013-02-17 12:46:00,28.4,16.7,29.70,NW,304,1.0,1.0,61,0.00,,,0.00,WeatherCatV1.02B3,2013-02-17 17:46:00,
2013-02-17 12:51:00,28.2,15.7,29.70,NNE,26,1.0,3.0,59,0.00,,,0.00,WeatherCatV1.02B3,2013-02-17 17:51:00,
2013-02-17 12:56:00,27.3,16.8,29.70,WNW,288,1.0,1.0,64,0.00,,,0.00,WeatherCatV1.02B3,2013-02-17 17:56:00,
2013-02-17 13:01:00,27.6,16.3,29.69,WNW,289,0.0,0.0,62,0.00,,,0.00,WeatherCatV1.02B3,2013-02-17 18:01:00,
2013-02-17 13:06:00,28.6,16.9,29.69,North,4,1.0,4.0,61,0.00,,,0.00,WeatherCatV1.02B3,2013-02-17 18:06:00,
2013-02-17 13:11:00,28.1,16.4,29.69,North,9,2.0,4.0,61,0.00,,,0.00,WeatherCatV1.02B3,2013-02-17 18:11:00,
2013-02-17 13:16:00,27.7,14.9,29.68,ENE,68,1.0,3.0,58,0.00,,,0.00,WeatherCatV1.02B3,2013-02-17 18:16:00,
2013-02-17 13:21:00,27.6,15.6,29.68,NE,49,2.0,2.0,60,0.00,,,0.00,WeatherCatV1.02B3,2013-02-17 18:21:00,
2013-02-17 13:26:00,27.9,15.8,29.68,ESE,122,0.0,3.0,60,0.00,,,0.00,WeatherCatV1.02B3,2013-02-17 18:26:00,
2013-02-17 13:31:00,28.9,16.0,29.68,SE,139,0.0,1.0,58,0.00,,,0.00,WeatherCatV1.02B3,2013-02-17 18:31:00,
2013-02-17 13:36:00,29.7,16.4,29.68,ESE,122,0.0,2.0,57,0.00,,,0.00,WeatherCatV1.02B3,2013-02-17 18:36:00,
2013-02-17 13:41:00,29.3,15.6,29.69,West,260,3.0,7.0,56,0.00,,,0.00,WeatherCatV1.02B3,2013-02-17 18:41:00,
2013-02-17 13:46:00,29.4,13.5,29.68,SE,129,1.0,3.0,51,0.00,,,0.00,WeatherCatV1.02B3,2013-02-17 18:46:00,
2013-02-17 13:51:00,29.7,12.4,29.68,SW,222,1.0,4.0,48,0.00,,,0.00,WeatherCatV1.02B3,2013-02-17 18:51:00,
2013-02-17 13:56:00,29.5,12.7,29.68,WSW,248,3.0,3.0,49,0.00,,,0.00,WeatherCatV1.02B3,2013-02-17 18:56:00,
2013-02-17 14:01:00,29.4,12.2,29.68,SW,225,3.0,5.0,48,0.00,,,0.00,WeatherCatV1.02B3,2013-02-17 19:01:00,
2013-02-17 14:06:00,29.2,14.2,29.68,SW,229,4.0,5.0,53,0.00,,,0.00,WeatherCatV1.02B3,2013-02-17 19:06:00,
2013-02-17 14:11:00,29.2,12.9,29.68,ENE,66,1.0,2.0,50,0.00,,,0.01,WeatherCatV1.02B3,2013-02-17 19:11:00,
2013-02-17 14:16:00,29.4,12.2,29.68,SW,224,0.0,2.0,48,0.00,,,0.01,WeatherCatV1.02B3,2013-02-17 19:16:00,
2013-02-17 14:21:00,29.5,12.3,29.68,SSW,212,6.0,7.0,48,0.00,,,0.01,WeatherCatV1.02B3,2013-02-17 19:21:00,
2013-02-17 14:26:00,29.3,13.0,29.68,SW,222,4.0,6.0,50,0.00,,,0.01,WeatherCatV1.02B3,2013-02-17 19:26:00,
2013-02-17 14:31:00,29.1,11.9,29.68,SW,233,6.0,7.0,48,0.00,,,0.01,WeatherCatV1.02B3,2013-02-17 19:31:00,
2013-02-17 14:36:00,28.7,10.6,29.68,WSW,239,8.0,8.0,46,0.00,,,0.01,WeatherCatV1.02B3,2013-02-17 19:36:00,
2013-02-17 14:41:00,28.9,12.6,29.68,SW,222,3.0,6.0,50,0.00,,,0.01,WeatherCatV1.02B3,2013-02-17 19:41:00,
2013-02-17 14:46:00,29.4,12.6,29.67,WNW,288,1.0,6.0,49,0.00,,,0.02,WeatherCatV1.02B3,2013-02-17 19:46:00,
2013-02-17 14:51:00,29.8,13.5,29.67,WSW,257,4.0,4.0,50,0.00,,,0.02,WeatherCatV1.02B3,2013-02-17 19:51:00,
2013-02-17 14:56:00,29.9,14.0,29.67,NNE,21,5.0,5.0,51,0.00,,,0.02,WeatherCatV1.02B3,2013-02-17 19:56:00,
2013-02-17 15:01:00,29.6,12.3,29.67,West,262,4.0,6.0,48,0.00,,,0.02,WeatherCatV1.02B3,2013-02-17 20:01:00,
2013-02-17 15:06:00,29.2,13.4,29.67,SSW,208,1.0,7.0,51,0.00,,,0.02,WeatherCatV1.02B3,2013-02-17 20:06:00,
2013-02-17 15:11:00,29.6,11.9,29.67,WSW,250,1.0,5.0,47,0.00,,,0.02,WeatherCatV1.02B3,2013-02-17 20:11:00,
2013-02-17 15:16:00,30.0,12.7,29.67,SSW,202,4.0,6.0,48,0.00,,,0.02,WeatherCatV1.02B3,2013-02-17 20:16:00,
2013-02-17 15:21:00,30.3,12.0,29.67,SSE,160,2.0,5.0,46,0.00,,,0.02,WeatherCatV1.02B3,2013-02-17 20:21:00,
2013-02-17 15:26:00,30.2,12.9,29.67,SSW,195,1.0,3.0,48,0.00,,,0.02,WeatherCatV1.02B3,2013-02-17 20:26:00,
2013-02-17 15:31:00,30.2,11.4,29.66,SW,217,4.0,5.0,45,0.00,,,0.02,WeatherCatV1.02B3,2013-02-17 20:31:00,
2013-02-17 15:36:00,30.2,12.4,29.66,ESE,121,3.0,4.0,47,0.00,,,0.02,WeatherCatV1.02B3,2013-02-17 20:36:00,
2013-02-17 15:41:00,30.5,13.2,29.66,WSW,257,2.0,5.0,48,0.00,,,0.02,WeatherCatV1.02B3,2013-02-17 20:41:00,
2013-02-17 15:46:00,30.7,11.9,29.66,SW,214,3.0,6.0,45,0.00,,,0.02,WeatherCatV1.02B3,2013-02-17 20:46:00,
2013-02-17 15:51:00,30.4,11.1,29.66,SW,228,1.0,4.0,44,0.00,,,0.02,WeatherCatV1.02B3,2013-02-17 20:51:00,
2013-02-17 15:56:00,30.8,11.0,29.66,ESE,117,0.0,7.0,43,0.00,,,0.02,WeatherCatV1.02B3,2013-02-17 20:56:00,
2013-02-17 16:01:00,30.7,11.4,29.66,SW,226,1.0,2.0,44,0.00,,,0.02,WeatherCatV1.02B3,2013-02-17 21:01:00,
2013-02-17 16:06:00,30.7,10.9,29.66,SSW,209,2.0,7.0,43,0.00,,,0.02,WeatherCatV1.02B3,2013-02-17 21:06:00,
2013-02-17 16:11:00,30.3,10.5,29.66,SW,222,6.0,6.0,43,0.00,,,0.02,WeatherCatV1.02B3,2013-02-17 21:11:00,
2013-02-17 16:16:00,30.3,10.5,29.66,SSW,207,1.0,5.0,43,0.00,,,0.02,WeatherCatV1.02B3,2013-02-17 21:16:00,
2013-02-17 16:21:00,30.4,11.6,29.66,West,270,0.0,4.0,45,0.00,,,0.02,WeatherCatV1.02B3,2013-02-17 21:21:00,
2013-02-17 16:26:00,30.6,12.3,29.65,SW,233,1.0,7.0,46,0.00,,,0.02,WeatherCatV1.02B3,2013-02-17 21:26:00,
2013-02-17 16:31:00,30.9,11.6,29.65,WSW,238,1.0,5.0,44,0.00,,,0.02,WeatherCatV1.02B3,2013-02-17 21:31:00,
2013-02-17 16:36:00,31.0,12.2,29.65,SW,217,3.0,5.0,45,0.00,,,0.02,WeatherCatV1.02B3,2013-02-17 21:36:00,
2013-02-17 16:41:00,30.7,11.4,29.65,SW,221,0.0,5.0,44,0.00,,,0.02,WeatherCatV1.02B3,2013-02-17 21:41:00,
2013-02-17 16:45:00,30.9,12.1,29.65,SSW,192,2.0,2.0,45,0.00,,,0.00,WeatherCatV1.02B3,2013-02-17 21:45:00,
2013-02-17 16:46:00,30.9,12.1,29.65,SW,234,2.0,5.0,45,0.00,,,0.02,WeatherCatV1.02B3,2013-02-17 21:46:00,
2013-02-17 16:50:00,30.9,12.1,29.65,SW,229,2.0,7.0,45,0.00,,,0.00,WeatherCatV1.02B3,2013-02-17 21:50:00,
2013-02-17 16:55:00,30.8,11.0,29.65,SW,225,2.0,7.0,43,0.00,,,0.00,WeatherCatV1.02B3,2013-02-17 21:55:00,
2013-02-17 17:00:00,30.3,11.5,29.65,SW,225,2.0,8.0,45,0.00,,,0.00,WeatherCatV1.02B3,2013-02-17 22:00:00,
2013-02-17 17:05:00,30.3,11.5,29.65,SW,225,2.0,8.0,45,0.00,,,0.00,WeatherCatV1.02B3,2013-02-17 22:05:00,
2013-02-17 17:10:00,30.3,11.5,29.65,SW,225,2.0,8.0,45,0.00,,,0.00,WeatherCatV1.02B3,2013-02-17 22:10:00,
2013-02-17 17:15:00,30.3,11.5,29.65,SW,225,2.0,8.0,45,0.00,,,0.00,WeatherCatV1.02B3,2013-02-17 22:15:00,
2013-02-17 17:20:00,30.3,11.5,29.65,SW,225,2.0,8.0,45,0.00,,,0.00,WeatherCatV1.02B3,2013-02-17 22:20:00,
2013-02-17 17:25:00,30.3,11.5,29.65,SW,225,2.0,8.0,45,0.00,,,0.00,WeatherCatV1.02B3,2013-02-17 22:25:00,
2013-02-17 17:30:00,30.3,11.5,29.65,SW,225,2.0,8.0,45,0.00,,,0.00,WeatherCatV1.02B3,2013-02-17 22:30:00,
2013-02-17 17:35:00,30.0,12.2,29.64,WSW,248,2.0,5.0,47,0.00,,,0.00,WeatherCatV1.02B3,2013-02-17 22:35:00,
2013-02-17 17:40:00,30.0,12.2,29.64,WSW,248,2.0,5.0,47,0.00,,,0.00,WeatherCatV1.02B3,2013-02-17 22:40:00,
2013-02-17 17:45:00,30.0,12.2,29.64,WSW,248,2.0,5.0,47,0.00,,,0.00,WeatherCatV1.02B3,2013-02-17 22:45:00,
2013-02-17 17:50:00,30.0,12.2,29.64,WSW,248,2.0,5.0,47,0.00,,,0.00,WeatherCatV1.02B3,2013-02-17 22:50:00,
2013-02-17 17:55:00,30.0,12.2,29.64,WSW,248,2.0,5.0,47,0.00,,,0.00,WeatherCatV1.02B3,2013-02-17 22:55:00,
2013-02-17 18:00:00,30.0,12.2,29.64,WSW,248,2.0,5.0,47,0.00,,,0.00,WeatherCatV1.02B3,2013-02-17 23:00:00,
2013-02-17 18:05:00,27.8,12.5,29.64,SW,225,1.0,4.0,52,0.00,,,0.00,WeatherCatV1.02B3,2013-02-17 23:05:00,
2013-02-17 18:10:00,27.8,12.5,29.64,SW,225,1.0,4.0,52,0.00,,,0.00,WeatherCatV1.02B3,2013-02-17 23:10:00,
2013-02-17 18:15:00,27.8,12.5,29.64,SW,225,1.0,4.0,52,0.00,,,0.00,WeatherCatV1.02B3,2013-02-17 23:15:00,
2013-02-17 18:20:00,27.8,12.5,29.64,SW,225,1.0,4.0,52,0.00,,,0.00,WeatherCatV1.02B3,2013-02-17 23:20:00,
2013-02-17 18:25:00,27.8,12.5,29.64,SW,225,1.0,4.0,52,0.00,,,0.00,WeatherCatV1.02B3,2013-02-17 23:25:00,
2013-02-17 18:30:00,27.8,12.5,29.64,SW,225,1.0,4.0,52,0.00,,,0.00,WeatherCatV1.02B3,2013-02-17 23:30:00,
2013-02-17 18:35:00,25.0,13.5,29.63,SW,225,0.0,3.0,61,0.00,,,0.00,WeatherCatV1.02B3,2013-02-17 23:35:00,
2013-02-17 18:40:00,25.0,13.5,29.63,SW,225,0.0,3.0,61,0.00,,,0.00,WeatherCatV1.02B3,2013-02-17 23:40:00,
2013-02-17 18:45:00,25.0,13.5,29.63,SW,225,0.0,3.0,61,0.00,,,0.00,WeatherCatV1.02B3,2013-02-17 23:45:00,
2013-02-17 18:50:00,25.0,13.5,29.63,SW,225,0.0,3.0,61,0.00,,,0.00,WeatherCatV1.02B3,2013-02-17 23:50:00,
2013-02-17 18:55:00,25.0,13.5,29.63,SW,225,0.0,3.0,61,0.00,,,0.00,WeatherCatV1.02B3,2013-02-17 23:55:00,
2013-02-17 19:00:00,25.0,13.5,29.63,SW,225,0.0,3.0,61,0.00,,,0.00,WeatherCatV1.02B3,2013-02-18 00:00:00,
2013-02-17 19:05:00,22.7,13.1,29.63,ENE,68,0.0,2.0,66,0.00,,,0.00,WeatherCatV1.02B3,2013-02-18 00:05:00,
2013-02-17 19:10:00,22.7,13.1,29.63,ENE,68,0.0,2.0,66,0.00,,,0.00,WeatherCatV1.02B3,2013-02-18 00:10:00,
2013-02-17 19:15:00,22.7,13.1,29.63,ENE,68,0.0,2.0,66,0.00,,,0.00,WeatherCatV1.02B3,2013-02-18 00:15:00,
2013-02-17 19:20:00,22.7,13.1,29.63,ENE,68,0.0,2.0,66,0.00,,,0.00,WeatherCatV1.02B3,2013-02-18 00:20:00,
2013-02-17 19:25:00,22.7,13.1,29.63,ENE,68,0.0,2.0,66,0.00,,,0.00,WeatherCatV1.02B3,2013-02-18 00:25:00,
2013-02-17 19:30:00,22.7,13.1,29.63,ENE,68,0.0,2.0,66,0.00,,,0.00,WeatherCatV1.02B3,2013-02-18 00:30:00,
2013-02-17 19:35:00,20.5,12.9,29.63,ENE,68,0.0,0.0,72,0.00,,,0.00,WeatherCatV1.02B3,2013-02-18 00:35:00,
2013-02-17 19:40:00,20.5,12.9,29.63,ENE,68,0.0,0.0,72,0.00,,,0.00,WeatherCatV1.02B3,2013-02-18 00:40:00,
2013-02-17 19:45:00,20.5,12.9,29.63,ENE,68,0.0,0.0,72,0.00,,,0.00,WeatherCatV1.02B3,2013-02-18 00:45:00,
2013-02-17 19:50:00,20.5,12.9,29.63,ENE,68,0.0,0.0,72,0.00,,,0.00,WeatherCatV1.02B3,2013-02-18 00:50:00,
2013-02-17 19:55:00,20.5,12.9,29.63,ENE,68,0.0,0.0,72,0.00,,,0.00,WeatherCatV1.02B3,2013-02-18 00:55:00,
2013-02-17 20:00:00,20.3,12.7,29.64,ENE,68,0.0,0.0,72,0.00,,,0.00,WeatherCatV1.02B3,2013-02-18 01:00:00,
2013-02-17 20:05:00,20.3,12.7,29.64,ENE,68,0.0,0.0,72,0.00,,,0.00,WeatherCatV1.02B3,2013-02-18 01:05:00,
2013-02-17 20:10:00,20.3,12.7,29.64,ENE,68,0.0,0.0,72,0.00,,,0.00,WeatherCatV1.02B3,2013-02-18 01:10:00,
2013-02-17 20:15:00,20.3,12.7,29.64,ENE,68,0.0,0.0,72,0.00,,,0.00,WeatherCatV1.02B3,2013-02-18 01:15:00,
2013-02-17 20:20:00,20.3,12.7,29.64,ENE,68,0.0,0.0,72,0.00,,,0.00,WeatherCatV1.02B3,2013-02-18 01:20:00,
2013-02-17 20:25:00,20.3,12.7,29.64,ENE,68,0.0,0.0,72,0.00,,,0.00,WeatherCatV1.02B3,2013-02-18 01:25:00,
2013-02-17 20:30:00,20.4,12.8,29.63,East,90,0.0,1.0,72,0.00,,,0.00,WeatherCatV1.02B3,2013-02-18 01:30:00,
2013-02-17 20:35:00,20.4,12.8,29.63,East,90,0.0,1.0,72,0.00,,,0.00,WeatherCatV1.02B3,2013-02-18 01:35:00,
2013-02-17 20:40:00,20.4,12.8,29.63,East,90,0.0,1.0,72,0.00,,,0.00,WeatherCatV1.02B3,2013-02-18 01:40:00,
2013-02-17 20:45:00,20.4,12.8,29.63,East,90,0.0,1.0,72,0.00,,,0.00,WeatherCatV1.02B3,2013-02-18 01:45:00,
2013-02-17 20:50:00,20.4,12.8,29.63,East,90,0.0,1.0,72,0.00,,,0.00,WeatherCatV1.02B3,2013-02-18 01:50:00,
2013-02-17 20:55:00,20.4,12.8,29.63,East,90,0.0,1.0,72,0.00,,,0.00,WeatherCatV1.02B3,2013-02-18 01:55:00,
2013-02-17 21:00:00,20.4,12.8,29.63,East,90,0.0,1.0,72,0.00,,,0.00,WeatherCatV1.02B3,2013-02-18 02:00:00,
2013-02-17 21:05:00,18.2,12.5,29.63,East,90,0.0,0.0,78,0.00,,,0.00,WeatherCatV1.02B3,2013-02-18 02:05:00,
2013-02-17 21:10:00,18.2,12.5,29.63,East,90,0.0,0.0,78,0.00,,,0.00,WeatherCatV1.02B3,2013-02-18 02:10:00,
2013-02-17 21:15:00,18.2,12.5,29.63,East,90,0.0,0.0,78,0.00,,,0.00,WeatherCatV1.02B3,2013-02-18 02:15:00,
2013-02-17 21:20:00,18.2,12.5,29.63,East,90,0.0,0.0,78,0.00,,,0.00,WeatherCatV1.02B3,2013-02-18 02:20:00,
2013-02-17 21:25:00,18.2,12.5,29.63,East,90,0.0,0.0,78,0.00,,,0.00,WeatherCatV1.02B3,2013-02-18 02:25:00,
2013-02-17 21:30:00,18.2,12.5,29.63,East,90,0.0,0.0,78,0.00,,,0.00,WeatherCatV1.02B3,2013-02-18 02:30:00,
2013-02-17 21:35:00,18.2,12.8,29.62,East,90,0.0,0.0,79,0.00,,,0.00,WeatherCatV1.02B3,2013-02-18 02:35:00,
2013-02-17 21:40:00,18.2,12.8,29.62,East,90,0.0,0.0,79,0.00,,,0.00,WeatherCatV1.02B3,2013-02-18 02:40:00,
2013-02-17 21:45:00,18.2,12.8,29.62,East,90,0.0,0.0,79,0.00,,,0.00,WeatherCatV1.02B3,2013-02-18 02:45:00,
2013-02-17 21:50:00,18.2,12.8,29.62,East,90,0.0,0.0,79,0.00,,,0.00,WeatherCatV1.02B3,2013-02-18 02:50:00,
2013-02-17 21:55:00,18.2,12.8,29.62,East,90,0.0,0.0,79,0.00,,,0.00,WeatherCatV1.02B3,2013-02-18 02:55:00,
2013-02-17 22:00:00,18.2,12.8,29.62,East,90,0.0,0.0,79,0.00,,,0.00,WeatherCatV1.02B3,2013-02-18 03:00:00,
2013-02-17 22:05:00,18.4,12.4,29.62,East,90,0.0,0.0,77,0.00,,,0.00,WeatherCatV1.02B3,2013-02-18 03:05:00,
2013-02-17 22:10:00,18.4,12.4,29.62,East,90,0.0,0.0,77,0.00,,,0.00,WeatherCatV1.02B3,2013-02-18 03:10:00,
2013-02-17 22:15:00,18.4,12.4,29.62,East,90,0.0,0.0,77,0.00,,,0.00,WeatherCatV1.02B3,2013-02-18 03:15:00,
2013-02-17 22:20:00,18.4,12.4,29.62,East,90,0.0,0.0,77,0.00,,,0.00,WeatherCatV1.02B3,2013-02-18 03:20:00,
2013-02-17 22:25:00,18.4,12.4,29.62,East,90,0.0,0.0,77,0.00,,,0.00,WeatherCatV1.02B3,2013-02-18 03:25:00,
2013-02-17 22:30:00,18.4,12.4,29.62,East,90,0.0,0.0,77,0.00,,,0.00,WeatherCatV1.02B3,2013-02-18 03:30:00,
2013-02-17 22:35:00,19.1,13.1,29.61,East,90,0.0,1.0,77,0.00,,,0.00,WeatherCatV1.02B3,2013-02-18 03:35:00,
2013-02-17 22:40:00,19.1,13.1,29.61,East,90,0.0,1.0,77,0.00,,,0.00,WeatherCatV1.02B3,2013-02-18 03:40:00,
2013-02-17 22:45:00,19.1,13.1,29.61,East,90,0.0,1.0,77,0.00,,,0.00,WeatherCatV1.02B3,2013-02-18 03:45:00,
2013-02-17 22:50:00,19.1,13.1,29.61,East,90,0.0,1.0,77,0.00,,,0.00,WeatherCatV1.02B3,2013-02-18 03:50:00,
2013-02-17 22:55:00,19.1,13.1,29.61,East,90,0.0,1.0,77,0.00,,,0.00,WeatherCatV1.02B3,2013-02-18 03:55:00,
2013-02-17 23:00:00,19.1,13.1,29.61,East,90,0.0,1.0,77,0.00,,,0.00,WeatherCatV1.02B3,2013-02-18 04:00:00,
2013-02-17 23:05:00,20.4,15.0,29.60,East,90,0.0,1.0,79,0.00,,,0.00,WeatherCatV1.02B3,2013-02-18 04:05:00,
2013-02-17 23:10:00,20.4,15.0,29.60,East,90,0.0,1.0,79,0.00,,,0.00,WeatherCatV1.02B3,2013-02-18 04:10:00,
2013-02-17 23:15:00,20.4,15.0,29.60,East,90,0.0,1.0,79,0.00,,,0.00,WeatherCatV1.02B3,2013-02-18 04:15:00,
2013-02-17 23:20:00,20.4,15.0,29.60,East,90,0.0,1.0,79,0.00,,,0.00,WeatherCatV1.02B3,2013-02-18 04:20:00,
2013-02-17 23:25:00,20.4,15.0,29.60,East,90,0.0,1.0,79,0.00,,,0.00,WeatherCatV1.02B3,2013-02-18 04:25:00,
2013-02-17 23:30:00,20.4,15.0,29.60,East,90,0.0,1.0,79,0.00,,,0.00,WeatherCatV1.02B3,2013-02-18 04:30:00,
2013-02-17 23:35:00,22.4,15.7,29.61,East,90,0.0,1.0,75,0.00,,,0.00,WeatherCatV1.02B3,2013-02-18 04:35:00,
2013-02-17 23:40:00,22.4,15.7,29.61,East,90,0.0,1.0,75,0.00,,,0.00,WeatherCatV1.02B3,2013-02-18 04:40:00,
2013-02-17 23:45:00,22.4,15.7,29.61,East,90,0.0,1.0,75,0.00,,,0.00,WeatherCatV1.02B3,2013-02-18 04:45:00,
2013-02-17 23:50:00,22.4,15.7,29.61,East,90,0.0,1.0,75,0.00,,,0.00,WeatherCatV1.02B3,2013-02-18 04:50:00,
2013-02-17 23:55:00,22.4,15.7,29.61,East,90,0.0,1.0,75,0.00,,,0.00,WeatherCatV1.02B3,2013-02-18 04:55:00,